sensor_id;sensor_type;location;lat;lon;timestamp;P1;durP1;ratioP1;P2;durP2;ratioP2
11817;SDS011;5966;52.402;5.322;2022-12-18T00:00:21;35.93;;;20.27;;
11817;SDS011;5966;52.402;5.322;2022-12-18T00:02:50;37.17;;;19.73;;
11817;SDS011;5966;52.402;5.322;2022-12-18T00:05:25;36.03;;;18.90;;
11817;SDS011;5966;52.402;5.322;2022-12-18T00:07:58;38.30;;;19.87;;
11817;SDS011;5966;52.402;5.322;2022-12-18T00:10:27;41.13;;;19.37;;
11817;SDS011;5966;52.402;5.322;2022-12-18T00:13:04;33.03;;;18.40;;
11817;SDS011;5966;52.402;5.322;2022-12-18T00:15:35;36.00;;;18.63;;
11817;SDS011;5966;52.402;5.322;2022-12-18T00:18:07;34.87;;;18.73;;
11817;SDS011;5966;52.402;5.322;2022-12-18T00:20:49;46.40;;;20.87;;
11817;SDS011;5966;52.402;5.322;2022-12-18T00:23:18;38.53;;;20.00;;
11817;SDS011;5966;52.402;5.322;2022-12-18T00:25:54;39.97;;;20.17;;
11817;SDS011;5966;52.402;5.322;2022-12-18T00:28:22;37.80;;;19.73;;
11817;SDS011;5966;52.402;5.322;2022-12-18T00:30:50;42.33;;;21.43;;
11817;SDS011;5966;52.402;5.322;2022-12-18T00:33:19;37.30;;;19.37;;
11817;SDS011;5966;52.402;5.322;2022-12-18T00:35:48;36.27;;;20.27;;
11817;SDS011;5966;52.402;5.322;2022-12-18T00:38:16;41.37;;;20.50;;
11817;SDS011;5966;52.402;5.322;2022-12-18T00:40:44;42.60;;;21.73;;
11817;SDS011;5966;52.402;5.322;2022-12-18T00:43:12;38.93;;;21.00;;
11817;SDS011;5966;52.402;5.322;2022-12-18T00:45:39;38.20;;;20.87;;
11817;SDS011;5966;52.402;5.322;2022-12-18T00:48:11;41.60;;;19.73;;
11817;SDS011;5966;52.402;5.322;2022-12-18T00:50:39;38.27;;;20.67;;
11817;SDS011;5966;52.402;5.322;2022-12-18T00:53:08;38.40;;;19.37;;
11817;SDS011;5966;52.402;5.322;2022-12-18T00:55:37;38.43;;;19.77;;
11817;SDS011;5966;52.402;5.322;2022-12-18T00:58:06;35.33;;;19.03;;
11817;SDS011;5966;52.402;5.322;2022-12-18T01:00:35;37.20;;;20.30;;
11817;SDS011;5966;52.402;5.322;2022-12-18T01:03:03;36.37;;;19.77;;
11817;SDS011;5966;52.402;5.322;2022-12-18T01:08:46;34.40;;;18.03;;
11817;SDS011;5966;52.402;5.322;2022-12-18T01:11:18;33.40;;;18.33;;
11817;SDS011;5966;52.402;5.322;2022-12-18T01:14:09;33.47;;;17.73;;
11817;SDS011;5966;52.402;5.322;2022-12-18T01:16:41;36.93;;;19.90;;
11817;SDS011;5966;52.402;5.322;2022-12-18T01:19:10;34.33;;;19.70;;
11817;SDS011;5966;52.402;5.322;2022-12-18T01:21:39;37.83;;;18.70;;
11817;SDS011;5966;52.402;5.322;2022-12-18T01:24:09;41.43;;;21.77;;
11817;SDS011;5966;52.402;5.322;2022-12-18T01:26:39;34.97;;;17.83;;
11817;SDS011;5966;52.402;5.322;2022-12-18T01:31:48;34.23;;;17.57;;
11817;SDS011;5966;52.402;5.322;2022-12-18T01:34:20;35.27;;;18.10;;
11817;SDS011;5966;52.402;5.322;2022-12-18T01:36:51;37.40;;;19.33;;
11817;SDS011;5966;52.402;5.322;2022-12-18T01:39:21;37.77;;;19.77;;
11817;SDS011;5966;52.402;5.322;2022-12-18T01:41:50;38.73;;;20.53;;
11817;SDS011;5966;52.402;5.322;2022-12-18T01:44:51;39.50;;;19.27;;
11817;SDS011;5966;52.402;5.322;2022-12-18T01:47:56;37.73;;;19.90;;
11817;SDS011;5966;52.402;5.322;2022-12-18T01:50:28;40.87;;;20.10;;
11817;SDS011;5966;52.402;5.322;2022-12-18T01:53:02;40.37;;;20.77;;
11817;SDS011;5966;52.402;5.322;2022-12-18T01:55:50;42.30;;;20.43;;
11817;SDS011;5966;52.402;5.322;2022-12-18T01:58:27;36.13;;;19.63;;
11817;SDS011;5966;52.402;5.322;2022-12-18T02:01:02;38.93;;;19.03;;
11817;SDS011;5966;52.402;5.322;2022-12-18T02:03:30;36.10;;;19.63;;
11817;SDS011;5966;52.402;5.322;2022-12-18T02:05:59;41.17;;;20.13;;
11817;SDS011;5966;52.402;5.322;2022-12-18T02:08:36;37.63;;;19.70;;
11817;SDS011;5966;52.402;5.322;2022-12-18T02:11:28;38.50;;;20.10;;
11817;SDS011;5966;52.402;5.322;2022-12-18T02:14:11;42.20;;;20.50;;
11817;SDS011;5966;52.402;5.322;2022-12-18T02:16:51;38.83;;;19.47;;
11817;SDS011;5966;52.402;5.322;2022-12-18T02:19:29;38.73;;;19.83;;
11817;SDS011;5966;52.402;5.322;2022-12-18T02:22:20;36.47;;;20.20;;
11817;SDS011;5966;52.402;5.322;2022-12-18T02:25:11;38.33;;;19.73;;
11817;SDS011;5966;52.402;5.322;2022-12-18T02:27:50;37.00;;;20.03;;
11817;SDS011;5966;52.402;5.322;2022-12-18T02:30:22;38.73;;;20.20;;
11817;SDS011;5966;52.402;5.322;2022-12-18T02:32:54;41.80;;;20.50;;
11817;SDS011;5966;52.402;5.322;2022-12-18T02:35:23;38.27;;;18.97;;
11817;SDS011;5966;52.402;5.322;2022-12-18T02:37:58;40.60;;;20.17;;
11817;SDS011;5966;52.402;5.322;2022-12-18T02:40:28;39.03;;;19.60;;
11817;SDS011;5966;52.402;5.322;2022-12-18T02:43:03;37.03;;;18.73;;
11817;SDS011;5966;52.402;5.322;2022-12-18T02:45:34;36.33;;;18.37;;
11817;SDS011;5966;52.402;5.322;2022-12-18T02:48:03;35.73;;;18.30;;
11817;SDS011;5966;52.402;5.322;2022-12-18T02:50:34;39.53;;;19.33;;
11817;SDS011;5966;52.402;5.322;2022-12-18T02:53:27;36.83;;;18.73;;
11817;SDS011;5966;52.402;5.322;2022-12-18T02:56:03;34.07;;;18.07;;
11817;SDS011;5966;52.402;5.322;2022-12-18T02:58:42;35.90;;;18.10;;
11817;SDS011;5966;52.402;5.322;2022-12-18T03:01:16;38.30;;;19.33;;
11817;SDS011;5966;52.402;5.322;2022-12-18T03:03:56;37.33;;;18.60;;
11817;SDS011;5966;52.402;5.322;2022-12-18T03:06:32;35.87;;;18.70;;
11817;SDS011;5966;52.402;5.322;2022-12-18T03:09:06;40.10;;;19.70;;
11817;SDS011;5966;52.402;5.322;2022-12-18T03:11:40;37.97;;;19.03;;
11817;SDS011;5966;52.402;5.322;2022-12-18T03:14:37;38.40;;;18.97;;
11817;SDS011;5966;52.402;5.322;2022-12-18T03:17:13;35.17;;;18.63;;
11817;SDS011;5966;52.402;5.322;2022-12-18T03:19:49;36.90;;;18.83;;
11817;SDS011;5966;52.402;5.322;2022-12-18T03:25:06;39.63;;;18.67;;
11817;SDS011;5966;52.402;5.322;2022-12-18T03:27:40;37.57;;;19.43;;
11817;SDS011;5966;52.402;5.322;2022-12-18T03:30:26;33.47;;;17.87;;
11817;SDS011;5966;52.402;5.322;2022-12-18T03:32:58;37.47;;;19.30;;
11817;SDS011;5966;52.402;5.322;2022-12-18T03:35:35;35.60;;;18.93;;
11817;SDS011;5966;52.402;5.322;2022-12-18T03:38:08;36.67;;;20.10;;
11817;SDS011;5966;52.402;5.322;2022-12-18T03:40:41;39.17;;;19.97;;
11817;SDS011;5966;52.402;5.322;2022-12-18T03:43:19;32.90;;;18.53;;
11817;SDS011;5966;52.402;5.322;2022-12-18T03:48:46;37.27;;;19.10;;
11817;SDS011;5966;52.402;5.322;2022-12-18T03:51:22;37.97;;;19.03;;
11817;SDS011;5966;52.402;5.322;2022-12-18T03:53:55;35.67;;;18.60;;
11817;SDS011;5966;52.402;5.322;2022-12-18T03:56:26;35.03;;;19.20;;
11817;SDS011;5966;52.402;5.322;2022-12-18T03:58:58;36.57;;;19.00;;
11817;SDS011;5966;52.402;5.322;2022-12-18T04:01:37;34.03;;;18.47;;
11817;SDS011;5966;52.402;5.322;2022-12-18T04:04:12;34.97;;;18.37;;
11817;SDS011;5966;52.402;5.322;2022-12-18T04:06:42;34.97;;;17.83;;
11817;SDS011;5966;52.402;5.322;2022-12-18T04:09:12;34.03;;;18.90;;
11817;SDS011;5966;52.402;5.322;2022-12-18T04:11:41;35.27;;;18.77;;
11817;SDS011;5966;52.402;5.322;2022-12-18T04:14:10;35.60;;;18.73;;
11817;SDS011;5966;52.402;5.322;2022-12-18T04:16:45;32.53;;;17.73;;
11817;SDS011;5966;52.402;5.322;2022-12-18T04:19:13;35.23;;;18.97;;
11817;SDS011;5966;52.402;5.322;2022-12-18T04:21:41;31.87;;;17.70;;
11817;SDS011;5966;52.402;5.322;2022-12-18T04:24:08;34.07;;;18.20;;
11817;SDS011;5966;52.402;5.322;2022-12-18T04:26:36;35.43;;;17.20;;
11817;SDS011;5966;52.402;5.322;2022-12-18T04:29:05;32.63;;;16.70;;
11817;SDS011;5966;52.402;5.322;2022-12-18T04:31:33;31.10;;;16.83;;
11817;SDS011;5966;52.402;5.322;2022-12-18T04:37:53;29.60;;;15.13;;
11817;SDS011;5966;52.402;5.322;2022-12-18T04:40:22;31.53;;;16.93;;
11817;SDS011;5966;52.402;5.322;2022-12-18T04:43:08;24.70;;;14.30;;
11817;SDS011;5966;52.402;5.322;2022-12-18T04:45:51;29.27;;;16.73;;
11817;SDS011;5966;52.402;5.322;2022-12-18T04:48:29;25.47;;;16.53;;
11817;SDS011;5966;52.402;5.322;2022-12-18T04:54:25;31.37;;;15.63;;
11817;SDS011;5966;52.402;5.322;2022-12-18T04:57:08;29.93;;;15.93;;
11817;SDS011;5966;52.402;5.322;2022-12-18T04:59:37;30.40;;;16.30;;
11817;SDS011;5966;52.402;5.322;2022-12-18T05:02:06;30.67;;;16.97;;
11817;SDS011;5966;52.402;5.322;2022-12-18T05:04:47;29.40;;;14.93;;
11817;SDS011;5966;52.402;5.322;2022-12-18T05:07:33;31.40;;;15.50;;
11817;SDS011;5966;52.402;5.322;2022-12-18T05:10:02;31.67;;;16.53;;
11817;SDS011;5966;52.402;5.322;2022-12-18T05:12:31;31.57;;;16.47;;
11817;SDS011;5966;52.402;5.322;2022-12-18T05:15:21;33.77;;;16.07;;
11817;SDS011;5966;52.402;5.322;2022-12-18T05:18:13;32.63;;;16.53;;
11817;SDS011;5966;52.402;5.322;2022-12-18T05:20:43;30.00;;;15.53;;
11817;SDS011;5966;52.402;5.322;2022-12-18T05:23:33;30.57;;;15.53;;
11817;SDS011;5966;52.402;5.322;2022-12-18T05:26:03;30.23;;;16.30;;
11817;SDS011;5966;52.402;5.322;2022-12-18T05:28:33;28.37;;;15.60;;
11817;SDS011;5966;52.402;5.322;2022-12-18T05:31:03;28.17;;;15.60;;
11817;SDS011;5966;52.402;5.322;2022-12-18T05:33:32;31.27;;;15.63;;
11817;SDS011;5966;52.402;5.322;2022-12-18T05:36:05;24.80;;;14.47;;
11817;SDS011;5966;52.402;5.322;2022-12-18T05:39:06;24.30;;;13.13;;
11817;SDS011;5966;52.402;5.322;2022-12-18T05:41:36;27.23;;;14.73;;
11817;SDS011;5966;52.402;5.322;2022-12-18T05:44:04;25.10;;;14.53;;
11817;SDS011;5966;52.402;5.322;2022-12-18T05:46:34;26.37;;;13.43;;
11817;SDS011;5966;52.402;5.322;2022-12-18T05:49:04;26.13;;;14.23;;
11817;SDS011;5966;52.402;5.322;2022-12-18T05:51:36;24.07;;;13.33;;
11817;SDS011;5966;52.402;5.322;2022-12-18T05:54:07;25.10;;;13.57;;
11817;SDS011;5966;52.402;5.322;2022-12-18T05:56:37;22.80;;;13.13;;
11817;SDS011;5966;52.402;5.322;2022-12-18T05:59:16;22.10;;;13.37;;
11817;SDS011;5966;52.402;5.322;2022-12-18T06:01:49;23.83;;;13.00;;
11817;SDS011;5966;52.402;5.322;2022-12-18T06:04:23;21.17;;;12.53;;
11817;SDS011;5966;52.402;5.322;2022-12-18T06:07:02;19.50;;;12.77;;
11817;SDS011;5966;52.402;5.322;2022-12-18T06:09:32;21.67;;;12.67;;
11817;SDS011;5966;52.402;5.322;2022-12-18T06:12:00;17.90;;;12.47;;
11817;SDS011;5966;52.402;5.322;2022-12-18T06:14:29;18.27;;;11.80;;
11817;SDS011;5966;52.402;5.322;2022-12-18T06:16:58;25.37;;;12.80;;
11817;SDS011;5966;52.402;5.322;2022-12-18T06:19:26;19.27;;;11.90;;
11817;SDS011;5966;52.402;5.322;2022-12-18T06:21:54;20.20;;;10.93;;
11817;SDS011;5966;52.402;5.322;2022-12-18T06:24:26;19.13;;;12.07;;
11817;SDS011;5966;52.402;5.322;2022-12-18T06:26:55;18.83;;;11.37;;
11817;SDS011;5966;52.402;5.322;2022-12-18T06:29:23;17.97;;;10.57;;
11817;SDS011;5966;52.402;5.322;2022-12-18T06:31:51;17.73;;;10.13;;
11817;SDS011;5966;52.402;5.322;2022-12-18T06:34:22;18.13;;;10.43;;
11817;SDS011;5966;52.402;5.322;2022-12-18T06:36:50;18.53;;;11.07;;
11817;SDS011;5966;52.402;5.322;2022-12-18T06:39:18;15.57;;;10.17;;
11817;SDS011;5966;52.402;5.322;2022-12-18T06:41:46;20.07;;;11.53;;
11817;SDS011;5966;52.402;5.322;2022-12-18T06:44:17;14.40;;;9.37;;
11817;SDS011;5966;52.402;5.322;2022-12-18T06:46:45;16.17;;;9.67;;
11817;SDS011;5966;52.402;5.322;2022-12-18T06:49:15;15.63;;;10.00;;
11817;SDS011;5966;52.402;5.322;2022-12-18T06:51:44;16.03;;;10.07;;
11817;SDS011;5966;52.402;5.322;2022-12-18T06:54:13;14.07;;;10.00;;
11817;SDS011;5966;52.402;5.322;2022-12-18T06:56:41;17.37;;;10.30;;
11817;SDS011;5966;52.402;5.322;2022-12-18T06:59:12;16.77;;;10.43;;
11817;SDS011;5966;52.402;5.322;2022-12-18T07:01:42;14.87;;;9.50;;
11817;SDS011;5966;52.402;5.322;2022-12-18T07:04:11;18.23;;;10.60;;
11817;SDS011;5966;52.402;5.322;2022-12-18T07:06:39;16.60;;;10.13;;
11817;SDS011;5966;52.402;5.322;2022-12-18T07:09:07;19.07;;;10.90;;
11817;SDS011;5966;52.402;5.322;2022-12-18T07:11:35;13.77;;;9.13;;
11817;SDS011;5966;52.402;5.322;2022-12-18T07:14:02;15.33;;;9.70;;
11817;SDS011;5966;52.402;5.322;2022-12-18T07:16:30;17.73;;;10.30;;
11817;SDS011;5966;52.402;5.322;2022-12-18T07:19:02;17.70;;;10.40;;
11817;SDS011;5966;52.402;5.322;2022-12-18T07:21:32;18.20;;;10.67;;
11817;SDS011;5966;52.402;5.322;2022-12-18T07:24:10;13.77;;;9.03;;
11817;SDS011;5966;52.402;5.322;2022-12-18T07:29:49;18.20;;;10.00;;
11817;SDS011;5966;52.402;5.322;2022-12-18T07:32:18;14.80;;;9.63;;
11817;SDS011;5966;52.402;5.322;2022-12-18T07:34:47;16.60;;;9.63;;
11817;SDS011;5966;52.402;5.322;2022-12-18T07:37:15;16.20;;;9.23;;
11817;SDS011;5966;52.402;5.322;2022-12-18T07:39:43;16.03;;;9.03;;
11817;SDS011;5966;52.402;5.322;2022-12-18T07:42:14;15.97;;;8.77;;
11817;SDS011;5966;52.402;5.322;2022-12-18T07:45:01;13.47;;;8.60;;
11817;SDS011;5966;52.402;5.322;2022-12-18T07:47:33;14.87;;;8.63;;
11817;SDS011;5966;52.402;5.322;2022-12-18T07:50:45;14.17;;;8.63;;
11817;SDS011;5966;52.402;5.322;2022-12-18T07:53:41;15.70;;;9.10;;
11817;SDS011;5966;52.402;5.322;2022-12-18T07:56:18;13.40;;;8.67;;
11817;SDS011;5966;52.402;5.322;2022-12-18T07:59:00;17.50;;;8.73;;
11817;SDS011;5966;52.402;5.322;2022-12-18T08:01:53;14.47;;;8.90;;
11817;SDS011;5966;52.402;5.322;2022-12-18T08:04:39;15.00;;;8.90;;
11817;SDS011;5966;52.402;5.322;2022-12-18T08:07:16;9.53;;;7.70;;
11817;SDS011;5966;52.402;5.322;2022-12-18T08:09:58;16.27;;;8.80;;
11817;SDS011;5966;52.402;5.322;2022-12-18T08:15:57;12.23;;;8.47;;
11817;SDS011;5966;52.402;5.322;2022-12-18T08:18:35;14.70;;;8.97;;
11817;SDS011;5966;52.402;5.322;2022-12-18T08:21:09;15.63;;;9.17;;
11817;SDS011;5966;52.402;5.322;2022-12-18T08:23:50;11.57;;;7.80;;
11817;SDS011;5966;52.402;5.322;2022-12-18T08:26:55;13.97;;;9.27;;
11817;SDS011;5966;52.402;5.322;2022-12-18T08:29:45;13.17;;;8.43;;
11817;SDS011;5966;52.402;5.322;2022-12-18T08:32:45;12.63;;;8.70;;
11817;SDS011;5966;52.402;5.322;2022-12-18T08:35:34;11.60;;;7.83;;
11817;SDS011;5966;52.402;5.322;2022-12-18T08:38:11;12.10;;;7.60;;
11817;SDS011;5966;52.402;5.322;2022-12-18T08:40:41;12.33;;;8.23;;
11817;SDS011;5966;52.402;5.322;2022-12-18T08:43:10;14.03;;;8.93;;
11817;SDS011;5966;52.402;5.322;2022-12-18T08:45:56;12.80;;;7.80;;
11817;SDS011;5966;52.402;5.322;2022-12-18T08:48:24;12.93;;;8.53;;
11817;SDS011;5966;52.402;5.322;2022-12-18T08:51:08;15.83;;;8.27;;
11817;SDS011;5966;52.402;5.322;2022-12-18T08:53:45;12.03;;;8.93;;
11817;SDS011;5966;52.402;5.322;2022-12-18T08:56:15;11.80;;;7.67;;
11817;SDS011;5966;52.402;5.322;2022-12-18T08:58:51;13.63;;;8.43;;
11817;SDS011;5966;52.402;5.322;2022-12-18T09:01:39;16.20;;;9.07;;
11817;SDS011;5966;52.402;5.322;2022-12-18T09:04:26;14.30;;;8.97;;
11817;SDS011;5966;52.402;5.322;2022-12-18T09:07:25;12.10;;;7.97;;
11817;SDS011;5966;52.402;5.322;2022-12-18T09:10:40;10.73;;;7.90;;
11817;SDS011;5966;52.402;5.322;2022-12-18T09:13:12;13.13;;;8.23;;
11817;SDS011;5966;52.402;5.322;2022-12-18T09:15:50;11.47;;;7.83;;
11817;SDS011;5966;52.402;5.322;2022-12-18T09:21:19;15.57;;;8.40;;
11817;SDS011;5966;52.402;5.322;2022-12-18T09:23:53;14.07;;;7.73;;
11817;SDS011;5966;52.402;5.322;2022-12-18T09:26:26;12.70;;;8.10;;
11817;SDS011;5966;52.402;5.322;2022-12-18T09:29:00;11.73;;;7.73;;
11817;SDS011;5966;52.402;5.322;2022-12-18T09:31:29;9.90;;;7.30;;
11817;SDS011;5966;52.402;5.322;2022-12-18T09:33:57;11.60;;;8.00;;
11817;SDS011;5966;52.402;5.322;2022-12-18T09:36:29;10.73;;;7.63;;
11817;SDS011;5966;52.402;5.322;2022-12-18T09:38:57;11.10;;;7.57;;
11817;SDS011;5966;52.402;5.322;2022-12-18T09:41:37;12.93;;;7.43;;
11817;SDS011;5966;52.402;5.322;2022-12-18T09:44:16;12.43;;;7.97;;
11817;SDS011;5966;52.402;5.322;2022-12-18T09:46:53;10.87;;;7.50;;
11817;SDS011;5966;52.402;5.322;2022-12-18T09:49:29;10.57;;;7.13;;
11817;SDS011;5966;52.402;5.322;2022-12-18T09:52:02;9.70;;;7.40;;
11817;SDS011;5966;52.402;5.322;2022-12-18T09:54:43;12.00;;;7.57;;
11817;SDS011;5966;52.402;5.322;2022-12-18T09:57:17;11.50;;;7.57;;
11817;SDS011;5966;52.402;5.322;2022-12-18T09:59:50;11.93;;;7.57;;
11817;SDS011;5966;52.402;5.322;2022-12-18T10:02:30;11.37;;;6.87;;
11817;SDS011;5966;52.402;5.322;2022-12-18T10:05:10;10.80;;;6.97;;
11817;SDS011;5966;52.402;5.322;2022-12-18T10:07:50;9.97;;;7.37;;
11817;SDS011;5966;52.402;5.322;2022-12-18T10:10:27;10.13;;;6.80;;
11817;SDS011;5966;52.402;5.322;2022-12-18T10:13:02;10.47;;;7.27;;
11817;SDS011;5966;52.402;5.322;2022-12-18T10:15:42;11.20;;;7.47;;
11817;SDS011;5966;52.402;5.322;2022-12-18T10:18:22;9.80;;;7.00;;
11817;SDS011;5966;52.402;5.322;2022-12-18T10:21:03;10.47;;;7.07;;
11817;SDS011;5966;52.402;5.322;2022-12-18T10:23:39;10.73;;;6.90;;
11817;SDS011;5966;52.402;5.322;2022-12-18T10:26:16;11.80;;;7.33;;
11817;SDS011;5966;52.402;5.322;2022-12-18T10:28:46;8.40;;;6.33;;
11817;SDS011;5966;52.402;5.322;2022-12-18T10:31:27;10.03;;;6.63;;
11817;SDS011;5966;52.402;5.322;2022-12-18T10:34:08;12.27;;;7.60;;
11817;SDS011;5966;52.402;5.322;2022-12-18T10:36:37;10.57;;;6.60;;
11817;SDS011;5966;52.402;5.322;2022-12-18T10:39:15;11.27;;;6.80;;
11817;SDS011;5966;52.402;5.322;2022-12-18T10:41:46;11.00;;;6.97;;
11817;SDS011;5966;52.402;5.322;2022-12-18T10:44:18;9.60;;;6.57;;
11817;SDS011;5966;52.402;5.322;2022-12-18T10:46:53;12.03;;;6.47;;
11817;SDS011;5966;52.402;5.322;2022-12-18T10:49:36;12.37;;;6.60;;
11817;SDS011;5966;52.402;5.322;2022-12-18T10:52:14;9.83;;;7.10;;
11817;SDS011;5966;52.402;5.322;2022-12-18T10:54:46;9.70;;;6.67;;
11817;SDS011;5966;52.402;5.322;2022-12-18T11:00:22;10.00;;;6.67;;
11817;SDS011;5966;52.402;5.322;2022-12-18T11:03:07;11.10;;;7.03;;
11817;SDS011;5966;52.402;5.322;2022-12-18T11:06:10;9.70;;;6.37;;
11817;SDS011;5966;52.402;5.322;2022-12-18T11:08:40;11.20;;;6.83;;
11817;SDS011;5966;52.402;5.322;2022-12-18T11:11:19;11.60;;;7.03;;
11817;SDS011;5966;52.402;5.322;2022-12-18T11:13:56;9.33;;;6.60;;
11817;SDS011;5966;52.402;5.322;2022-12-18T11:16:35;10.10;;;6.97;;
11817;SDS011;5966;52.402;5.322;2022-12-18T11:19:32;9.33;;;6.73;;
11817;SDS011;5966;52.402;5.322;2022-12-18T11:22:17;10.67;;;6.37;;
11817;SDS011;5966;52.402;5.322;2022-12-18T11:24:52;11.30;;;6.53;;
11817;SDS011;5966;52.402;5.322;2022-12-18T11:27:47;8.50;;;6.27;;
11817;SDS011;5966;52.402;5.322;2022-12-18T11:30:31;10.63;;;6.90;;
11817;SDS011;5966;52.402;5.322;2022-12-18T11:33:14;10.63;;;6.83;;
11817;SDS011;5966;52.402;5.322;2022-12-18T11:35:55;9.37;;;6.30;;
11817;SDS011;5966;52.402;5.322;2022-12-18T11:38:34;10.73;;;7.13;;
11817;SDS011;5966;52.402;5.322;2022-12-18T11:41:11;8.67;;;6.13;;
11817;SDS011;5966;52.402;5.322;2022-12-18T11:43:52;10.27;;;6.47;;
11817;SDS011;5966;52.402;5.322;2022-12-18T11:46:26;10.47;;;6.47;;
11817;SDS011;5966;52.402;5.322;2022-12-18T11:49:12;9.93;;;6.80;;
11817;SDS011;5966;52.402;5.322;2022-12-18T11:51:51;10.87;;;6.97;;
11817;SDS011;5966;52.402;5.322;2022-12-18T11:54:36;10.93;;;6.47;;
11817;SDS011;5966;52.402;5.322;2022-12-18T11:57:05;9.50;;;6.30;;
11817;SDS011;5966;52.402;5.322;2022-12-18T11:59:45;9.67;;;6.07;;
11817;SDS011;5966;52.402;5.322;2022-12-18T12:02:30;11.37;;;6.80;;
11817;SDS011;5966;52.402;5.322;2022-12-18T12:05:21;9.33;;;6.00;;
11817;SDS011;5966;52.402;5.322;2022-12-18T12:11:23;11.27;;;6.53;;
11817;SDS011;5966;52.402;5.322;2022-12-18T12:14:38;10.23;;;5.97;;
11817;SDS011;5966;52.402;5.322;2022-12-18T12:17:19;8.23;;;6.07;;
11817;SDS011;5966;52.402;5.322;2022-12-18T12:20:10;9.87;;;6.13;;
11817;SDS011;5966;52.402;5.322;2022-12-18T12:23:15;11.53;;;7.33;;
11817;SDS011;5966;52.402;5.322;2022-12-18T12:26:14;8.00;;;6.40;;
11817;SDS011;5966;52.402;5.322;2022-12-18T12:29:45;10.27;;;6.60;;
11817;SDS011;5966;52.402;5.322;2022-12-18T12:36:02;9.70;;;6.43;;
11817;SDS011;5966;52.402;5.322;2022-12-18T12:38:40;10.40;;;6.53;;
11817;SDS011;5966;52.402;5.322;2022-12-18T12:48:01;9.13;;;6.37;;
11817;SDS011;5966;52.402;5.322;2022-12-18T12:50:51;10.07;;;6.87;;
11817;SDS011;5966;52.402;5.322;2022-12-18T12:53:25;9.83;;;7.60;;
11817;SDS011;5966;52.402;5.322;2022-12-18T12:56:22;10.03;;;6.77;;
11817;SDS011;5966;52.402;5.322;2022-12-18T12:59:10;11.70;;;7.20;;
11817;SDS011;5966;52.402;5.322;2022-12-18T13:01:49;10.67;;;6.90;;
11817;SDS011;5966;52.402;5.322;2022-12-18T13:07:39;10.60;;;7.30;;
11817;SDS011;5966;52.402;5.322;2022-12-18T13:10:40;11.23;;;7.40;;
11817;SDS011;5966;52.402;5.322;2022-12-18T13:13:11;12.23;;;7.77;;
11817;SDS011;5966;52.402;5.322;2022-12-18T13:15:50;10.83;;;6.90;;
11817;SDS011;5966;52.402;5.322;2022-12-18T13:19:23;10.10;;;6.57;;
11817;SDS011;5966;52.402;5.322;2022-12-18T13:22:19;9.80;;;6.97;;
11817;SDS011;5966;52.402;5.322;2022-12-18T13:28:12;12.33;;;7.37;;
11817;SDS011;5966;52.402;5.322;2022-12-18T13:34:29;10.20;;;6.83;;
11817;SDS011;5966;52.402;5.322;2022-12-18T13:43:45;10.23;;;7.23;;
11817;SDS011;5966;52.402;5.322;2022-12-18T13:46:26;14.67;;;7.27;;
11817;SDS011;5966;52.402;5.322;2022-12-18T13:49:33;10.30;;;6.90;;
11817;SDS011;5966;52.402;5.322;2022-12-18T13:52:33;9.57;;;7.43;;
11817;SDS011;5966;52.402;5.322;2022-12-18T13:55:14;10.80;;;7.07;;
11817;SDS011;5966;52.402;5.322;2022-12-18T13:57:50;10.53;;;7.67;;
11817;SDS011;5966;52.402;5.322;2022-12-18T14:00:42;11.63;;;7.37;;
11817;SDS011;5966;52.402;5.322;2022-12-18T14:03:29;9.20;;;6.90;;
11817;SDS011;5966;52.402;5.322;2022-12-18T14:06:04;12.20;;;7.27;;
11817;SDS011;5966;52.402;5.322;2022-12-18T14:09:21;11.50;;;7.40;;
11817;SDS011;5966;52.402;5.322;2022-12-18T14:12:16;10.33;;;7.77;;
11817;SDS011;5966;52.402;5.322;2022-12-18T14:15:14;11.43;;;7.77;;
11817;SDS011;5966;52.402;5.322;2022-12-18T14:17:58;11.67;;;7.70;;
11817;SDS011;5966;52.402;5.322;2022-12-18T14:20:36;10.70;;;7.23;;
11817;SDS011;5966;52.402;5.322;2022-12-18T14:23:32;11.03;;;7.27;;
11817;SDS011;5966;52.402;5.322;2022-12-18T14:26:23;12.03;;;8.07;;
11817;SDS011;5966;52.402;5.322;2022-12-18T14:29:20;10.30;;;7.53;;
11817;SDS011;5966;52.402;5.322;2022-12-18T14:32:19;9.27;;;7.40;;
11817;SDS011;5966;52.402;5.322;2022-12-18T14:41:33;11.83;;;7.50;;
11817;SDS011;5966;52.402;5.322;2022-12-18T14:44:05;12.30;;;7.60;;
11817;SDS011;5966;52.402;5.322;2022-12-18T14:46:35;11.17;;;7.40;;
11817;SDS011;5966;52.402;5.322;2022-12-18T14:49:04;12.00;;;7.87;;
11817;SDS011;5966;52.402;5.322;2022-12-18T14:51:47;10.00;;;7.37;;
11817;SDS011;5966;52.402;5.322;2022-12-18T14:54:21;10.87;;;7.13;;
11817;SDS011;5966;52.402;5.322;2022-12-18T14:57:03;10.17;;;7.23;;
11817;SDS011;5966;52.402;5.322;2022-12-18T14:59:38;10.13;;;7.37;;
11817;SDS011;5966;52.402;5.322;2022-12-18T15:02:10;12.23;;;8.20;;
11817;SDS011;5966;52.402;5.322;2022-12-18T15:04:46;11.70;;;7.87;;
11817;SDS011;5966;52.402;5.322;2022-12-18T15:07:16;11.97;;;8.23;;
11817;SDS011;5966;52.402;5.322;2022-12-18T15:12:43;11.23;;;7.43;;
11817;SDS011;5966;52.402;5.322;2022-12-18T15:18:19;10.87;;;7.47;;
11817;SDS011;5966;52.402;5.322;2022-12-18T15:20:51;11.60;;;7.77;;
11817;SDS011;5966;52.402;5.322;2022-12-18T15:23:21;10.87;;;8.07;;
11817;SDS011;5966;52.402;5.322;2022-12-18T15:25:54;14.00;;;8.37;;
11817;SDS011;5966;52.402;5.322;2022-12-18T15:28:25;11.57;;;7.53;;
11817;SDS011;5966;52.402;5.322;2022-12-18T15:31:00;13.53;;;8.27;;
11817;SDS011;5966;52.402;5.322;2022-12-18T15:33:31;13.03;;;8.30;;
11817;SDS011;5966;52.402;5.322;2022-12-18T15:36:01;12.03;;;7.53;;
11817;SDS011;5966;52.402;5.322;2022-12-18T15:38:31;10.23;;;7.63;;
11817;SDS011;5966;52.402;5.322;2022-12-18T15:40:59;12.13;;;8.20;;
11817;SDS011;5966;52.402;5.322;2022-12-18T15:43:29;12.47;;;8.03;;
11817;SDS011;5966;52.402;5.322;2022-12-18T15:46:00;13.43;;;8.73;;
11817;SDS011;5966;52.402;5.322;2022-12-18T15:48:29;12.30;;;8.53;;
11817;SDS011;5966;52.402;5.322;2022-12-18T15:50:57;12.73;;;8.33;;
11817;SDS011;5966;52.402;5.322;2022-12-18T15:53:26;12.43;;;8.13;;
11817;SDS011;5966;52.402;5.322;2022-12-18T15:55:57;11.57;;;8.07;;
11817;SDS011;5966;52.402;5.322;2022-12-18T15:58:45;11.37;;;7.73;;
11817;SDS011;5966;52.402;5.322;2022-12-18T16:01:13;10.20;;;7.67;;
11817;SDS011;5966;52.402;5.322;2022-12-18T16:03:42;13.17;;;8.83;;
11817;SDS011;5966;52.402;5.322;2022-12-18T16:06:11;12.83;;;8.73;;
11817;SDS011;5966;52.402;5.322;2022-12-18T16:08:39;12.17;;;8.33;;
11817;SDS011;5966;52.402;5.322;2022-12-18T16:11:31;37.63;;;23.37;;
11817;SDS011;5966;52.402;5.322;2022-12-18T16:14:11;14.70;;;9.20;;
11817;SDS011;5966;52.402;5.322;2022-12-18T16:16:44;86.37;;;47.60;;
11817;SDS011;5966;52.402;5.322;2022-12-18T16:19:13;40.47;;;24.10;;
11817;SDS011;5966;52.402;5.322;2022-12-18T16:21:41;14.30;;;9.30;;
11817;SDS011;5966;52.402;5.322;2022-12-18T16:24:11;34.10;;;19.50;;
11817;SDS011;5966;52.402;5.322;2022-12-18T16:26:42;68.83;;;47.37;;
11817;SDS011;5966;52.402;5.322;2022-12-18T16:29:11;23.63;;;15.03;;
11817;SDS011;5966;52.402;5.322;2022-12-18T16:31:41;16.07;;;10.43;;
11817;SDS011;5966;52.402;5.322;2022-12-18T16:34:09;40.63;;;31.23;;
11817;SDS011;5966;52.402;5.322;2022-12-18T16:36:38;16.53;;;10.70;;
11817;SDS011;5966;52.402;5.322;2022-12-18T16:39:07;30.43;;;23.67;;
11817;SDS011;5966;52.402;5.322;2022-12-18T16:41:36;31.67;;;23.43;;
11817;SDS011;5966;52.402;5.322;2022-12-18T16:44:04;31.93;;;24.33;;
11817;SDS011;5966;52.402;5.322;2022-12-18T16:46:34;51.17;;;39.10;;
11817;SDS011;5966;52.402;5.322;2022-12-18T16:49:03;27.70;;;20.87;;
11817;SDS011;5966;52.402;5.322;2022-12-18T16:51:31;15.27;;;10.60;;
11817;SDS011;5966;52.402;5.322;2022-12-18T16:53:59;13.47;;;9.33;;